createdAt,value
2019-02-09T00:00:11.510Z,0
2019-02-09T00:00:52.194Z,0
2019-02-09T00:01:32.786Z,0
2019-02-09T00:02:13.389Z,0
2019-02-09T00:02:53.990Z,0
2019-02-09T00:03:34.588Z,0
2019-02-09T00:04:15.183Z,0
2019-02-09T00:04:55.775Z,0
2019-02-09T00:05:36.362Z,0
2019-02-09T00:06:16.962Z,0
2019-02-09T00:06:57.552Z,0
2019-02-09T00:07:38.155Z,0
2019-02-09T00:08:18.766Z,0
2019-02-09T00:08:59.349Z,0
2019-02-09T00:09:39.952Z,0
2019-02-09T00:10:20.547Z,0
2019-02-09T00:11:01.156Z,0
2019-02-09T00:11:41.759Z,0
2019-02-09T00:12:22.359Z,0
2019-02-09T00:13:02.968Z,0
2019-02-09T00:13:43.565Z,0
2019-02-09T00:14:24.157Z,0
2019-02-09T00:15:04.769Z,0
2019-02-09T00:15:45.361Z,0
2019-02-09T00:16:25.957Z,0
2019-02-09T00:17:06.579Z,0
2019-02-09T00:17:47.188Z,0
2019-02-09T00:18:27.784Z,0
2019-02-09T00:19:08.364Z,0
2019-02-09T00:19:48.952Z,0
2019-02-09T00:20:29.554Z,0
2019-02-09T00:21:10.158Z,0
2019-02-09T00:21:50.781Z,0
2019-02-09T00:22:31.348Z,0
2019-02-09T00:23:11.942Z,0
2019-02-09T00:23:52.543Z,0
2019-02-09T00:24:33.157Z,0
2019-02-09T00:25:13.768Z,0
2019-02-09T00:25:54.364Z,0
2019-02-09T00:26:34.972Z,0
2019-02-09T00:27:15.587Z,0
2019-02-09T00:27:56.196Z,0
2019-02-09T00:28:36.792Z,0
2019-02-09T00:29:17.422Z,0
2019-02-09T00:29:58.032Z,0
2019-02-09T00:30:38.652Z,0
2019-02-09T00:31:19.264Z,0
2019-02-09T00:31:59.879Z,0
2019-02-09T00:32:40.468Z,0
2019-02-09T00:33:21.088Z,0
2019-02-09T00:34:01.712Z,0
2019-02-09T00:34:42.306Z,0
2019-02-09T00:35:22.894Z,0
2019-02-09T00:36:03.540Z,0
2019-02-09T00:36:44.158Z,0
2019-02-09T00:37:24.784Z,0
2019-02-09T00:38:05.391Z,0
2019-02-09T00:38:46.051Z,0
2019-02-09T00:39:26.730Z,0
2019-02-09T00:40:07.362Z,0
2019-02-09T00:40:47.978Z,0
2019-02-09T00:41:28.583Z,0
2019-02-09T00:42:09.204Z,0
2019-02-09T00:42:49.849Z,0
2019-02-09T00:43:30.460Z,0
2019-02-09T00:44:11.097Z,0
2019-02-09T00:44:51.679Z,0
2019-02-09T00:45:32.279Z,0
2019-02-09T00:46:12.865Z,0
2019-02-09T00:46:53.470Z,0
2019-02-09T00:47:34.087Z,0
2019-02-09T00:48:14.710Z,0
2019-02-09T00:48:55.289Z,0
2019-02-09T00:49:35.880Z,0
2019-02-09T00:50:16.472Z,0
2019-02-09T00:50:57.059Z,0
2019-02-09T00:51:37.670Z,0
2019-02-09T00:52:18.297Z,0
2019-02-09T00:52:58.926Z,0
2019-02-09T00:53:39.519Z,0
2019-02-09T00:54:20.122Z,0
2019-02-09T00:55:00.723Z,0
2019-02-09T00:55:41.312Z,0
2019-02-09T00:56:21.914Z,0
2019-02-09T00:57:02.508Z,0
2019-02-09T00:57:43.100Z,0
2019-02-09T00:58:23.688Z,0
2019-02-09T00:59:04.305Z,0
2019-02-09T00:59:44.917Z,0
2019-02-09T01:00:25.527Z,0
2019-02-09T01:01:06.118Z,0
2019-02-09T01:01:46.714Z,0
2019-02-09T01:02:27.301Z,0
2019-02-09T01:03:07.920Z,0
2019-02-09T01:03:48.513Z,0
2019-02-09T01:04:29.172Z,0
2019-02-09T01:05:09.780Z,0
2019-02-09T01:05:50.464Z,0
2019-02-09T01:06:31.082Z,0
2019-02-09T01:07:11.695Z,0
2019-02-09T01:07:52.366Z,0
2019-02-09T01:08:32.978Z,0
2019-02-09T01:09:13.681Z,0
2019-02-09T01:09:54.263Z,0
2019-02-09T01:10:34.900Z,0
2019-02-09T01:11:15.524Z,0
2019-02-09T01:11:56.182Z,0
2019-02-09T01:12:36.772Z,0
2019-02-09T01:13:17.357Z,0
2019-02-09T01:15:53.923Z,0
2019-02-09T01:16:34.549Z,0
2019-02-09T01:17:15.158Z,0
2019-02-09T01:17:55.758Z,0
2019-02-09T01:18:36.396Z,0
2019-02-09T01:19:16.976Z,0
2019-02-09T01:19:57.560Z,0
2019-02-09T01:20:38.140Z,0
2019-02-09T01:21:18.754Z,0
2019-02-09T01:21:59.353Z,0
2019-02-09T01:22:39.956Z,0
2019-02-09T01:23:20.560Z,0
2019-02-09T01:24:01.164Z,0
2019-02-09T01:24:41.762Z,0
2019-02-09T01:25:22.340Z,0
2019-02-09T01:26:02.929Z,0
2019-02-09T01:26:43.510Z,0
2019-02-09T01:27:24.106Z,0
2019-02-09T01:28:04.696Z,0
2019-02-09T01:28:45.299Z,0
2019-02-09T01:29:25.930Z,0
2019-02-09T01:30:06.519Z,0
2019-02-09T01:30:47.117Z,0
2019-02-09T01:31:27.717Z,0
2019-02-09T01:32:08.308Z,0
2019-02-09T01:32:48.903Z,0
2019-02-09T01:33:29.498Z,0
2019-02-09T01:34:10.096Z,0
2019-02-09T01:34:50.684Z,0
2019-02-09T01:35:31.286Z,0
2019-02-09T01:36:11.880Z,0
2019-02-09T01:36:52.480Z,0
2019-02-09T01:37:33.107Z,0
2019-02-09T01:40:04.547Z,0
2019-02-09T01:40:45.158Z,0
2019-02-09T01:41:25.754Z,0
2019-02-09T01:42:06.364Z,0
2019-02-09T01:42:46.997Z,0
2019-02-09T01:43:27.586Z,0
2019-02-09T01:44:08.182Z,0
2019-02-09T01:44:48.783Z,0
2019-02-09T01:45:29.413Z,0
2019-02-09T01:46:10.014Z,0
2019-02-09T01:46:50.618Z,0
2019-02-09T01:47:31.236Z,0
2019-02-09T01:48:11.836Z,0
2019-02-09T01:48:52.436Z,0
2019-02-09T01:49:33.025Z,0
2019-02-09T01:50:13.608Z,0
2019-02-09T01:50:54.220Z,0
2019-02-09T01:51:34.986Z,0
2019-02-09T01:52:15.587Z,0
2019-02-09T01:52:56.178Z,0
2019-02-09T01:53:36.779Z,0
2019-02-09T01:54:17.364Z,0
2019-02-09T01:54:57.958Z,0
2019-02-09T01:55:38.535Z,0
2019-02-09T01:56:19.125Z,0
2019-02-09T01:56:59.736Z,0
2019-02-09T01:57:40.328Z,0
2019-02-09T01:58:20.918Z,0
2019-02-09T01:59:01.512Z,0
2019-02-09T01:59:42.156Z,0
2019-02-09T02:00:22.737Z,0
2019-02-09T02:01:03.326Z,0
2019-02-09T02:01:43.938Z,0
2019-02-09T02:02:24.532Z,0
2019-02-09T02:03:05.120Z,0
2019-02-09T02:03:45.718Z,0
2019-02-09T02:04:26.312Z,0
2019-02-09T02:05:06.908Z,0
2019-02-09T02:05:47.502Z,0
2019-02-09T02:06:28.110Z,0
2019-02-09T02:07:08.704Z,0
2019-02-09T02:07:49.303Z,0
2019-02-09T02:08:29.918Z,0
2019-02-09T02:09:10.504Z,0
2019-02-09T02:09:51.111Z,0
2019-02-09T02:10:31.713Z,0
2019-02-09T02:11:12.310Z,0
2019-02-09T02:11:52.916Z,0
2019-02-09T02:12:33.540Z,0
2019-02-09T02:13:14.147Z,0
2019-02-09T02:13:54.756Z,0
2019-02-09T02:14:35.344Z,0
2019-02-09T02:15:15.932Z,0
2019-02-09T02:15:56.535Z,0
2019-02-09T02:16:37.130Z,0
2019-02-09T02:17:17.817Z,0
2019-02-09T02:17:58.414Z,0
2019-02-09T02:18:39.008Z,0
2019-02-09T02:19:19.628Z,0
2019-02-09T02:20:00.268Z,0
2019-02-09T02:20:40.848Z,0
2019-02-09T02:21:21.496Z,0
2019-02-09T02:22:02.052Z,0
2019-02-09T02:22:42.656Z,0
2019-02-09T02:23:23.267Z,0
2019-02-09T02:24:03.865Z,0
2019-02-09T02:24:44.456Z,0
2019-02-09T02:25:25.142Z,0
2019-02-09T02:26:05.732Z,0
2019-02-09T02:26:46.370Z,0
2019-02-09T02:27:26.960Z,0
2019-02-09T02:28:07.572Z,0
2019-02-09T02:28:48.162Z,0
2019-02-09T02:29:28.784Z,0
2019-02-09T02:30:09.366Z,0
2019-02-09T02:30:49.960Z,0
2019-02-09T02:31:30.550Z,0
2019-02-09T02:32:11.140Z,0
2019-02-09T02:32:51.840Z,0
2019-02-09T02:33:32.350Z,0
2019-02-09T02:34:12.961Z,0
2019-02-09T02:34:53.599Z,0
2019-02-09T02:35:34.206Z,0
2019-02-09T02:36:14.798Z,0
2019-02-09T02:36:55.410Z,0
2019-02-09T02:37:36.004Z,0
2019-02-09T02:38:16.634Z,0
2019-02-09T02:38:57.242Z,0
2019-02-09T02:39:37.848Z,0
2019-02-09T02:40:18.467Z,0
2019-02-09T02:40:59.071Z,0
2019-02-09T02:41:39.679Z,0
2019-02-09T02:42:20.266Z,0
2019-02-09T02:43:00.875Z,0
2019-02-09T02:43:41.502Z,0
2019-02-09T02:44:22.067Z,0
2019-02-09T02:45:02.677Z,0
2019-02-09T02:45:43.262Z,0
2019-02-09T02:46:23.874Z,0
2019-02-09T02:47:04.461Z,0
2019-02-09T02:47:45.075Z,0
2019-02-09T02:48:25.683Z,0
2019-02-09T02:49:06.278Z,0
2019-02-09T02:49:46.890Z,0
2019-02-09T02:50:27.489Z,0
2019-02-09T02:51:08.077Z,0
2019-02-09T02:51:48.685Z,0
2019-02-09T02:52:29.303Z,0
2019-02-09T02:53:09.895Z,0
2019-02-09T02:53:50.497Z,0
2019-02-09T02:54:31.098Z,0
2019-02-09T02:55:11.687Z,0
2019-02-09T02:55:52.266Z,0
2019-02-09T02:56:32.853Z,0
2019-02-09T02:57:13.448Z,0
2019-02-09T02:57:54.052Z,0
2019-02-09T02:58:34.738Z,0
2019-02-09T02:59:15.328Z,0
2019-02-09T02:59:55.912Z,0
2019-02-09T03:00:36.513Z,0
2019-02-09T03:01:17.108Z,0
2019-02-09T03:01:57.706Z,0
2019-02-09T03:02:38.296Z,0
2019-02-09T03:03:18.898Z,0
2019-02-09T03:03:59.488Z,0
2019-02-09T03:04:40.076Z,0
2019-02-09T03:05:20.690Z,0
2019-02-09T03:06:01.301Z,0
2019-02-09T03:06:41.894Z,0
2019-02-09T03:07:22.486Z,0
2019-02-09T03:08:03.096Z,0
2019-02-09T03:08:43.688Z,0
2019-02-09T03:09:24.282Z,0
2019-02-09T03:10:04.891Z,0
2019-02-09T03:10:45.474Z,0
2019-02-09T03:11:26.083Z,0
2019-02-09T03:12:06.678Z,0
2019-02-09T03:12:47.256Z,0
2019-02-09T03:13:27.844Z,0
2019-02-09T03:14:08.438Z,0
2019-02-09T03:14:49.081Z,0
2019-02-09T03:15:29.699Z,0
2019-02-09T03:16:10.315Z,0
2019-02-09T03:16:50.930Z,0
2019-02-09T03:17:31.590Z,0
2019-02-09T03:18:12.191Z,0
2019-02-09T03:18:52.778Z,0
2019-02-09T03:19:33.380Z,0
2019-02-09T03:20:13.958Z,0
2019-02-09T03:20:54.554Z,0
2019-02-09T03:21:35.155Z,0
2019-02-09T03:22:15.758Z,0
2019-02-09T03:22:56.386Z,0
2019-02-09T03:23:36.978Z,0
2019-02-09T03:24:17.578Z,0
2019-02-09T03:24:58.176Z,0
2019-02-09T03:25:38.833Z,0
2019-02-09T03:26:19.430Z,0
2019-02-09T03:27:00.034Z,0
2019-02-09T03:27:40.652Z,0
2019-02-09T03:28:21.236Z,0
2019-02-09T03:29:01.839Z,0
2019-02-09T03:29:42.437Z,0
2019-02-09T03:30:23.037Z,0
2019-02-09T03:31:03.648Z,0
2019-02-09T03:31:44.248Z,0
2019-02-09T03:32:24.859Z,0
2019-02-09T03:33:05.489Z,0
2019-02-09T03:33:46.045Z,0
2019-02-09T03:34:26.653Z,0
2019-02-09T03:35:07.254Z,0
2019-02-09T03:35:47.869Z,0
2019-02-09T03:36:28.480Z,0
2019-02-09T03:37:09.062Z,0
2019-02-09T03:37:49.654Z,0
2019-02-09T03:38:30.277Z,0
2019-02-09T03:39:10.866Z,0
2019-02-09T03:39:51.469Z,0
2019-02-09T03:40:32.066Z,0
2019-02-09T03:41:12.670Z,0
2019-02-09T03:41:53.264Z,0
2019-02-09T03:42:33.886Z,0
2019-02-09T03:43:14.491Z,0
2019-02-09T03:43:55.086Z,0
2019-02-09T03:44:35.680Z,0
2019-02-09T03:45:16.270Z,0
2019-02-09T03:45:56.869Z,0
2019-02-09T03:46:37.448Z,0
2019-02-09T03:47:18.045Z,0
2019-02-09T03:47:58.637Z,0
2019-02-09T03:48:39.221Z,0
2019-02-09T03:49:19.848Z,0
2019-02-09T03:50:00.448Z,0
2019-02-09T03:50:41.047Z,0
2019-02-09T03:51:21.652Z,0
2019-02-09T03:52:02.249Z,0
2019-02-09T03:52:42.861Z,0
2019-02-09T03:53:23.462Z,0
2019-02-09T03:54:04.048Z,0
2019-02-09T03:54:44.651Z,0
2019-02-09T03:55:25.253Z,0
2019-02-09T03:56:05.842Z,0
2019-02-09T03:56:46.428Z,0
2019-02-09T03:57:27.030Z,0
2019-02-09T03:58:07.616Z,0
2019-02-09T03:58:48.196Z,0
2019-02-09T03:59:28.818Z,0
2019-02-09T04:00:09.412Z,0
2019-02-09T04:00:55.101Z,0
2019-02-09T04:01:30.630Z,0
2019-02-09T04:02:11.232Z,0
2019-02-09T04:02:51.822Z,0
2019-02-09T04:03:32.430Z,0
2019-02-09T04:04:13.008Z,0
2019-02-09T04:04:53.624Z,0
2019-02-09T04:05:34.214Z,0
2019-02-09T04:06:14.798Z,0
2019-02-09T04:06:55.384Z,0
2019-02-09T04:07:35.972Z,0
2019-02-09T04:08:16.576Z,0
2019-02-09T04:08:57.162Z,0
2019-02-09T04:09:37.758Z,0
2019-02-09T04:10:18.352Z,0
2019-02-09T04:10:58.964Z,0
2019-02-09T04:11:39.562Z,0
2019-02-09T04:12:20.169Z,0
2019-02-09T04:13:00.758Z,0
2019-02-09T04:13:41.358Z,0
2019-02-09T04:14:21.955Z,0
2019-02-09T04:15:02.557Z,0
2019-02-09T04:15:43.171Z,0
2019-02-09T04:16:23.764Z,0
2019-02-09T04:17:04.378Z,0
2019-02-09T04:17:44.970Z,0
2019-02-09T04:18:25.558Z,0
2019-02-09T04:19:06.135Z,0
2019-02-09T04:19:46.728Z,0
2019-02-09T04:20:27.344Z,0
2019-02-09T04:21:07.936Z,0
2019-02-09T04:21:48.529Z,0
2019-02-09T04:22:29.124Z,0
2019-02-09T04:23:09.750Z,0
2019-02-09T04:23:50.360Z,0
2019-02-09T04:24:30.944Z,0
2019-02-09T04:25:11.543Z,0
2019-02-09T04:25:52.160Z,0
2019-02-09T04:26:32.762Z,0
2019-02-09T04:27:13.370Z,0
2019-02-09T04:27:53.971Z,0
2019-02-09T04:28:34.561Z,0
2019-02-09T04:29:15.159Z,0
2019-02-09T04:29:55.760Z,0
2019-02-09T04:30:36.428Z,0
2019-02-09T04:31:16.998Z,0
2019-02-09T04:31:57.603Z,0
2019-02-09T04:32:38.200Z,0
2019-02-09T04:33:18.803Z,0
2019-02-09T04:33:59.408Z,0
2019-02-09T04:34:40.007Z,0
2019-02-09T04:35:20.597Z,0
2019-02-09T04:36:01.197Z,0
2019-02-09T04:36:41.820Z,0
2019-02-09T04:37:22.419Z,0
2019-02-09T04:38:03.029Z,0
2019-02-09T04:38:43.618Z,0
2019-02-09T04:39:24.213Z,0
2019-02-09T04:40:04.812Z,0
2019-02-09T04:40:45.415Z,0
2019-02-09T04:41:26.039Z,0
2019-02-09T04:42:06.626Z,0
2019-02-09T04:42:47.233Z,0
2019-02-09T04:43:27.819Z,0
2019-02-09T04:44:08.423Z,0
2019-02-09T04:44:49.022Z,0
2019-02-09T04:45:29.644Z,0
2019-02-09T04:46:10.232Z,0
2019-02-09T04:46:50.822Z,0
2019-02-09T04:47:31.414Z,0
2019-02-09T04:48:12.021Z,0
2019-02-09T04:48:52.613Z,0
2019-02-09T04:49:33.226Z,0
2019-02-09T04:50:13.813Z,0
2019-02-09T04:50:54.402Z,0
2019-02-09T04:51:35.024Z,0
2019-02-09T04:52:15.617Z,0
2019-02-09T04:52:56.212Z,0
2019-02-09T04:53:36.811Z,0
2019-02-09T04:54:17.403Z,0
2019-02-09T04:54:58.005Z,0
2019-02-09T04:55:38.628Z,0
2019-02-09T04:56:19.217Z,0
2019-02-09T04:56:59.808Z,0
2019-02-09T04:57:40.404Z,0
2019-02-09T04:58:20.995Z,0
2019-02-09T04:59:01.585Z,0
2019-02-09T04:59:42.163Z,0
2019-02-09T05:00:22.762Z,0
2019-02-09T05:01:03.366Z,0
2019-02-09T05:01:43.981Z,0
2019-02-09T05:02:24.573Z,0
2019-02-09T05:03:05.457Z,0
2019-02-09T05:03:45.771Z,0
2019-02-09T05:04:26.392Z,0
2019-02-09T05:05:06.987Z,0
2019-02-09T05:05:47.582Z,0
2019-02-09T05:06:28.201Z,0
2019-02-09T05:07:08.794Z,0
2019-02-09T05:07:49.384Z,0
2019-02-09T05:08:29.985Z,0
2019-02-09T05:09:10.584Z,0
2019-02-09T05:09:51.205Z,0
2019-02-09T05:10:31.804Z,0
2019-02-09T05:11:12.407Z,0
2019-02-09T05:11:53.018Z,0
2019-02-09T05:12:33.644Z,0
2019-02-09T05:13:14.229Z,0
2019-02-09T05:13:54.813Z,0
2019-02-09T05:14:35.423Z,0
2019-02-09T05:15:16.056Z,0
2019-02-09T05:15:56.602Z,0
2019-02-09T05:16:37.195Z,0
2019-02-09T05:17:17.801Z,0
2019-02-09T05:17:58.391Z,0
2019-02-09T05:18:38.978Z,0
2019-02-09T05:19:19.567Z,0
2019-02-09T05:20:00.275Z,0
2019-02-09T05:20:40.820Z,0
2019-02-09T05:21:21.419Z,0
2019-02-09T05:22:02.016Z,0
2019-02-09T05:22:42.630Z,0
2019-02-09T05:23:23.214Z,0
2019-02-09T05:24:03.815Z,0
2019-02-09T05:24:44.405Z,0
2019-02-09T05:25:24.991Z,0
2019-02-09T05:26:05.610Z,0
2019-02-09T05:26:46.181Z,0
2019-02-09T05:27:26.782Z,0
2019-02-09T05:28:07.373Z,0
2019-02-09T05:28:47.954Z,0
2019-02-09T05:29:28.542Z,0
2019-02-09T05:30:09.130Z,0
2019-02-09T05:30:49.737Z,0
2019-02-09T05:31:30.333Z,0
2019-02-09T05:32:10.979Z,0
2019-02-09T05:32:51.588Z,0
2019-02-09T05:33:32.175Z,0
2019-02-09T05:34:12.760Z,0
2019-02-09T05:34:53.375Z,0
2019-02-09T05:35:33.933Z,0
2019-02-09T05:36:14.540Z,0
2019-02-09T05:36:55.133Z,0
2019-02-09T05:37:35.777Z,0
2019-02-09T05:38:16.371Z,0
2019-02-09T05:38:56.970Z,0
2019-02-09T05:39:37.559Z,0
2019-02-09T05:40:18.140Z,0
2019-02-09T05:40:58.774Z,0
2019-02-09T05:41:39.371Z,0
2019-02-09T05:42:19.983Z,0
2019-02-09T05:43:00.579Z,0
2019-02-09T05:43:41.159Z,0
2019-02-09T05:44:21.748Z,0
2019-02-09T05:45:02.331Z,0
2019-02-09T05:45:42.929Z,0
2019-02-09T05:46:23.522Z,0
2019-02-09T05:47:04.119Z,0
2019-02-09T05:47:44.725Z,0
2019-02-09T05:48:25.315Z,0
2019-02-09T05:49:05.967Z,0
2019-02-09T05:49:46.571Z,0
2019-02-09T05:50:27.181Z,0
2019-02-09T05:51:07.785Z,0
2019-02-09T05:51:48.395Z,0
2019-02-09T05:52:28.973Z,0
2019-02-09T05:53:09.600Z,0
2019-02-09T05:53:50.207Z,0
2019-02-09T05:54:30.841Z,0
2019-02-09T05:55:11.463Z,0
2019-02-09T05:55:52.048Z,0
2019-02-09T05:56:32.649Z,0
2019-02-09T05:57:13.243Z,0
2019-02-09T05:57:53.848Z,0
2019-02-09T05:58:34.445Z,0
2019-02-09T05:59:15.043Z,0
2019-02-09T05:59:55.648Z,0
2019-02-09T06:00:36.253Z,0
2019-02-09T06:01:16.849Z,0
2019-02-09T06:01:57.431Z,0
2019-02-09T06:02:38.017Z,0
2019-02-09T06:03:18.621Z,0
2019-02-09T06:03:59.202Z,0
2019-02-09T06:04:39.803Z,0
2019-02-09T06:05:20.419Z,0
2019-02-09T06:06:01.011Z,0
2019-02-09T06:06:41.621Z,0
2019-02-09T06:07:22.214Z,0
2019-02-09T06:08:02.829Z,0
2019-02-09T06:08:43.419Z,0
2019-02-09T06:09:24.008Z,0
2019-02-09T06:10:04.644Z,0
2019-02-09T06:10:45.256Z,0
2019-02-09T06:11:25.835Z,0
2019-02-09T06:12:06.506Z,0
2019-02-09T06:12:47.117Z,0
2019-02-09T06:13:27.720Z,0
2019-02-09T06:14:08.317Z,0
2019-02-09T06:14:48.915Z,0
2019-02-09T06:15:29.502Z,0
2019-02-09T06:16:10.093Z,0
2019-02-09T06:16:50.691Z,0
2019-02-09T06:17:31.291Z,0
2019-02-09T06:18:11.875Z,0
2019-02-09T06:18:52.489Z,0
2019-02-09T06:19:33.084Z,0
2019-02-09T06:20:13.685Z,0
2019-02-09T06:20:54.277Z,0
2019-02-09T06:21:34.883Z,0
2019-02-09T06:22:15.472Z,0
2019-02-09T06:22:56.067Z,0
2019-02-09T06:23:36.675Z,0
2019-02-09T06:24:17.291Z,0
2019-02-09T06:24:57.883Z,0
2019-02-09T06:25:38.497Z,0
2019-02-09T06:26:19.106Z,0
2019-02-09T06:26:59.713Z,0
2019-02-09T06:27:40.329Z,0
2019-02-09T06:28:20.971Z,0
2019-02-09T06:29:01.581Z,0
2019-02-09T06:29:42.175Z,0
2019-02-09T06:30:22.782Z,0
2019-02-09T06:31:03.377Z,0
2019-02-09T06:31:43.981Z,0
2019-02-09T06:32:24.585Z,0
2019-02-09T06:33:05.189Z,0
2019-02-09T06:33:45.800Z,0
2019-02-09T06:34:26.395Z,0
2019-02-09T06:35:07.001Z,0
2019-02-09T06:35:47.597Z,0
2019-02-09T06:36:28.205Z,0
2019-02-09T06:37:08.811Z,0
2019-02-09T06:37:49.414Z,0
2019-02-09T06:38:30.011Z,0
2019-02-09T06:39:10.623Z,0
2019-02-09T06:39:51.218Z,0
2019-02-09T06:40:31.819Z,4
2019-02-09T06:41:12.419Z,4
2019-02-09T06:41:53.015Z,4
2019-02-09T06:42:33.603Z,4
2019-02-09T06:43:14.203Z,0
2019-02-09T06:43:54.801Z,0
2019-02-09T06:44:35.407Z,4
2019-02-09T06:45:16.105Z,4
2019-02-09T06:45:56.693Z,4
2019-02-09T06:46:37.294Z,4
2019-02-09T06:47:17.885Z,4
2019-02-09T06:47:58.495Z,8
2019-02-09T06:48:39.084Z,4
2019-02-09T06:49:19.707Z,8
2019-02-09T06:50:00.303Z,8
2019-02-09T06:50:40.907Z,8
2019-02-09T06:51:21.498Z,12
2019-02-09T06:52:02.093Z,12
2019-02-09T06:52:42.721Z,12
2019-02-09T06:53:23.319Z,12
2019-02-09T06:54:03.941Z,16
2019-02-09T06:54:44.547Z,20
2019-02-09T06:55:25.136Z,20
2019-02-09T06:56:05.729Z,20
2019-02-09T06:56:46.331Z,20
2019-02-09T06:57:26.967Z,24
2019-02-09T06:58:07.555Z,24
2019-02-09T06:58:48.145Z,24
2019-02-09T06:59:28.755Z,24
2019-02-09T07:00:09.329Z,28
2019-02-09T07:00:49.921Z,28
2019-02-09T07:01:30.562Z,32
2019-02-09T07:02:11.152Z,32
2019-02-09T07:02:51.759Z,36
2019-02-09T07:03:32.352Z,40
2019-02-09T07:04:12.979Z,44
2019-02-09T07:04:53.563Z,48
2019-02-09T07:05:34.167Z,52
2019-02-09T07:06:14.765Z,56
2019-02-09T07:06:55.365Z,60
2019-02-09T07:07:35.978Z,60
2019-02-09T07:08:16.838Z,68
2019-02-09T07:08:57.189Z,72
2019-02-09T07:09:37.801Z,72
2019-02-09T07:10:18.407Z,80
2019-02-09T07:10:59.029Z,80
2019-02-09T07:11:39.633Z,88
2019-02-09T07:12:20.217Z,88
2019-02-09T07:13:00.817Z,92
2019-02-09T07:13:41.410Z,96
2019-02-09T07:14:22.044Z,100
2019-02-09T07:15:02.627Z,108
2019-02-09T07:15:43.227Z,112
2019-02-09T07:16:23.839Z,116
2019-02-09T07:17:04.431Z,124
2019-02-09T07:17:45.021Z,128
2019-02-09T07:18:25.612Z,132
2019-02-09T07:19:06.237Z,136
2019-02-09T07:19:46.846Z,144
2019-02-09T07:20:27.457Z,148
2019-02-09T07:21:08.067Z,152
2019-02-09T07:21:48.661Z,156
2019-02-09T07:22:29.255Z,164
2019-02-09T07:23:09.889Z,168
2019-02-09T07:23:50.501Z,176
2019-02-09T07:24:31.153Z,180
2019-02-09T07:25:11.758Z,184
2019-02-09T07:25:52.404Z,188
2019-02-09T07:26:32.964Z,192
2019-02-09T07:27:13.570Z,196
2019-02-09T07:27:54.441Z,196
2019-02-09T07:28:35.034Z,196
2019-02-09T07:29:15.637Z,196
2019-02-09T07:29:56.257Z,200
2019-02-09T07:30:36.918Z,204
2019-02-09T07:31:17.521Z,208
2019-02-09T07:31:58.123Z,212
2019-02-09T07:32:38.781Z,212
2019-02-09T07:33:19.440Z,220
2019-02-09T07:34:00.079Z,224
2019-02-09T07:34:40.720Z,228
2019-02-09T07:35:21.313Z,232
2019-02-09T07:36:01.901Z,240
2019-02-09T07:36:42.515Z,240
2019-02-09T07:37:23.183Z,244
2019-02-09T07:38:03.773Z,248
2019-02-09T07:38:44.355Z,252
2019-02-09T07:39:24.949Z,256
2019-02-09T07:40:05.559Z,256
2019-02-09T07:40:46.158Z,256
2019-02-09T07:41:26.764Z,260
2019-02-09T07:42:07.386Z,260
2019-02-09T07:42:48.003Z,264
2019-02-09T07:43:28.616Z,268
2019-02-09T07:44:09.201Z,276
2019-02-09T07:44:49.797Z,280
2019-02-09T07:45:30.411Z,284
2019-02-09T07:46:11.025Z,288
2019-02-09T07:46:51.661Z,296
2019-02-09T07:47:32.348Z,296
2019-02-09T07:48:12.961Z,304
2019-02-09T07:48:53.669Z,312
2019-02-09T07:49:34.279Z,316
2019-02-09T07:50:14.873Z,324
2019-02-09T07:50:55.463Z,328
2019-02-09T07:51:36.054Z,332
2019-02-09T07:52:16.655Z,340
2019-02-09T07:52:57.251Z,348
2019-02-09T07:53:37.923Z,352
2019-02-09T07:54:18.531Z,356
2019-02-09T07:54:59.144Z,360
2019-02-09T07:55:39.759Z,360
2019-02-09T07:56:20.368Z,360
2019-02-09T07:57:00.964Z,360
2019-02-09T07:57:41.576Z,360
2019-02-09T07:58:22.165Z,356
2019-02-09T07:59:02.775Z,356
2019-02-09T07:59:43.400Z,364
2019-02-09T08:00:24.028Z,368
2019-02-09T08:01:05.845Z,380
2019-02-09T08:01:45.317Z,380
2019-02-09T08:02:25.913Z,376
2019-02-09T08:03:06.553Z,384
2019-02-09T08:03:47.215Z,392
2019-02-09T08:04:27.872Z,404
2019-02-09T08:05:08.485Z,416
2019-02-09T08:05:49.087Z,416
2019-02-09T08:06:29.709Z,412
2019-02-09T08:07:10.301Z,420
2019-02-09T08:07:50.929Z,416
2019-02-09T08:08:31.535Z,420
2019-02-09T08:09:12.143Z,420
2019-02-09T08:09:52.741Z,408
2019-02-09T08:10:33.371Z,408
2019-02-09T08:11:13.989Z,408
2019-02-09T08:11:54.618Z,416
2019-02-09T08:12:35.217Z,424
2019-02-09T08:13:15.829Z,428
2019-02-09T08:13:56.440Z,424
2019-02-09T08:14:37.039Z,428
2019-02-09T08:15:17.683Z,432
2019-02-09T08:15:58.283Z,432
2019-02-09T08:16:38.967Z,432
2019-02-09T08:17:19.819Z,436
2019-02-09T08:18:00.524Z,440
2019-02-09T08:18:41.137Z,448
2019-02-09T08:19:21.786Z,448
2019-02-09T08:20:02.401Z,448
2019-02-09T08:20:42.993Z,444
2019-02-09T08:21:23.598Z,444
2019-02-09T08:22:04.242Z,444
2019-02-09T08:22:44.787Z,448
2019-02-09T08:23:25.372Z,448
2019-02-09T08:24:07.282Z,448
2019-02-09T08:24:46.607Z,452
2019-02-09T08:25:27.201Z,460
2019-02-09T08:26:07.818Z,460
2019-02-09T08:26:48.411Z,464
2019-02-09T08:27:29.005Z,472
2019-02-09T08:28:09.608Z,472
2019-02-09T08:28:50.214Z,476
2019-02-09T08:29:30.837Z,472
2019-02-09T08:30:11.445Z,480
2019-02-09T08:30:52.057Z,484
2019-02-09T08:31:32.657Z,484
2019-02-09T08:32:13.257Z,488
2019-02-09T08:32:53.857Z,484
2019-02-09T08:33:34.459Z,488
2019-02-09T08:34:15.093Z,492
2019-02-09T08:34:55.675Z,492
2019-02-09T08:35:36.288Z,492
2019-02-09T08:36:16.921Z,496
2019-02-09T08:36:57.525Z,500
2019-02-09T08:37:38.109Z,500
2019-02-09T08:38:18.699Z,504
2019-02-09T08:38:59.328Z,500
2019-02-09T08:39:39.993Z,500
2019-02-09T08:40:20.606Z,500
2019-02-09T08:41:01.207Z,504
2019-02-09T08:41:41.815Z,508
2019-02-09T08:42:22.547Z,504
2019-02-09T08:43:03.101Z,508
2019-02-09T08:43:43.711Z,512
2019-02-09T08:44:24.306Z,512
2019-02-09T08:45:04.925Z,512
2019-02-09T08:45:45.557Z,520
2019-02-09T08:46:26.167Z,524
2019-02-09T08:47:06.813Z,524
2019-02-09T08:47:47.387Z,536
2019-02-09T08:48:28.002Z,544
2019-02-09T08:49:08.673Z,544
2019-02-09T08:49:49.330Z,544
2019-02-09T08:50:29.941Z,548
2019-02-09T08:51:10.533Z,548
2019-02-09T08:51:51.167Z,552
2019-02-09T08:52:31.791Z,552
2019-02-09T08:53:12.379Z,564
2019-02-09T08:53:53.027Z,568
2019-02-09T08:54:33.677Z,568
2019-02-09T08:55:14.300Z,568
2019-02-09T08:55:54.907Z,572
2019-02-09T08:56:35.528Z,572
2019-02-09T08:57:16.142Z,568
2019-02-09T08:57:56.755Z,568
2019-02-09T08:58:37.371Z,564
2019-02-09T08:59:18.041Z,564
2019-02-09T08:59:58.699Z,572
2019-02-09T09:00:39.317Z,576
2019-02-09T09:01:19.927Z,576
2019-02-09T09:02:00.548Z,572
2019-02-09T09:02:41.165Z,576
2019-02-09T09:03:21.785Z,592
2019-02-09T09:04:02.391Z,604
2019-02-09T09:04:43.031Z,620
2019-02-09T09:05:23.636Z,620
2019-02-09T09:06:04.222Z,620
2019-02-09T09:06:44.840Z,620
2019-02-09T09:07:25.432Z,624
2019-02-09T09:08:06.025Z,624
2019-02-09T09:08:46.625Z,628
2019-02-09T09:09:27.211Z,632
2019-02-09T09:10:07.803Z,632
2019-02-09T09:10:48.388Z,640
2019-02-09T09:11:29.011Z,636
2019-02-09T09:12:09.616Z,632
2019-02-09T09:12:50.237Z,628
2019-02-09T09:13:30.912Z,632
2019-02-09T09:14:11.672Z,632
2019-02-09T09:14:52.372Z,632
2019-02-09T09:15:33.195Z,636
2019-02-09T09:16:13.853Z,632
2019-02-09T09:16:54.517Z,632
2019-02-09T09:17:35.126Z,636
2019-02-09T09:18:15.742Z,640
2019-02-09T09:18:56.379Z,640
2019-02-09T09:19:36.973Z,640
2019-02-09T09:20:17.575Z,648
2019-02-09T09:20:58.192Z,652
2019-02-09T09:21:38.838Z,656
2019-02-09T09:22:19.435Z,648
2019-02-09T09:23:00.069Z,648
2019-02-09T09:23:40.659Z,656
2019-02-09T09:24:21.251Z,652
2019-02-09T09:25:01.840Z,652
2019-02-09T09:25:42.439Z,652
2019-02-09T09:26:23.045Z,656
2019-02-09T09:27:03.645Z,660
2019-02-09T09:27:44.245Z,664
2019-02-09T09:28:24.845Z,664
2019-02-09T09:29:05.433Z,668
2019-02-09T09:29:46.026Z,668
2019-02-09T09:30:26.655Z,672
2019-02-09T09:31:07.276Z,676
2019-02-09T09:31:47.884Z,672
2019-02-09T09:32:28.975Z,676
2019-02-09T09:33:09.126Z,676
2019-02-09T09:33:49.720Z,680
2019-02-09T09:34:30.309Z,684
2019-02-09T09:35:10.916Z,688
2019-02-09T09:35:51.519Z,688
2019-02-09T09:36:32.122Z,692
2019-02-09T09:37:12.711Z,696
2019-02-09T09:37:53.295Z,696
2019-02-09T09:38:33.893Z,700
2019-02-09T09:39:14.500Z,700
2019-02-09T09:39:55.082Z,700
2019-02-09T09:40:35.666Z,704
2019-02-09T09:41:16.260Z,704
2019-02-09T09:41:56.852Z,704
2019-02-09T09:42:37.454Z,708
2019-02-09T09:43:18.054Z,708
2019-02-09T09:43:58.655Z,716
2019-02-09T09:44:39.254Z,716
2019-02-09T09:45:19.862Z,716
2019-02-09T09:46:00.474Z,716
2019-02-09T09:46:41.066Z,720
2019-02-09T09:47:21.675Z,716
2019-02-09T09:48:02.314Z,720
2019-02-09T09:48:42.908Z,724
2019-02-09T09:49:23.614Z,720
2019-02-09T09:50:04.260Z,724
2019-02-09T09:50:44.860Z,728
2019-02-09T09:51:25.446Z,732